Time;durP1;ratioP1;P1;durP2;ratioP2;P2;SDS_P1;SDS_P2;PMS_P1;PMS_P2;Temp;Humidity;BMP_temperature;BMP_pressure;BME280_temperature;BME280_humidity;BME280_pressure;Samples;Min_cycle;Max_cycle;Signal;HPM_P1;HPM_P2
2022/07/24 00:01:34;;;;;;;;;;;;;;;25.08;55.76;100654.84;7400583;19;1520;-61
2022/07/24 00:04:03;;;;;;;;;;;;;;;25.11;55.54;100638.22;7403972;19;1536;-61
2022/07/24 00:06:34;;;;;;;;;;;;;;;25.07;55.69;100650.44;7402935;19;1320;-58
2022/07/24 00:09:02;;;;;;;;;;;;;;;25.10;55.41;100647.38;7403218;19;1857;-62
2022/07/24 00:11:31;;;;;;;;;;;;;;;25.09;55.21;100633.03;7403986;19;1640;-57
2022/07/24 00:13:59;;;;;;;;;;;;;;;25.11;55.53;100649.06;7403160;19;1730;-58
2022/07/24 00:16:27;;;;;;;;;;;;;;;25.10;55.46;100633.84;7403663;19;1497;-62
2022/07/24 00:18:56;;;;;;;;;;;;;;;25.10;55.60;100644.69;7402930;19;1635;-62
2022/07/24 00:21:24;;;;;;;;;;;;;;;25.10;55.32;100648.22;7408276;19;1607;-57
2022/07/24 00:23:55;;;;;;;;;;;;;;;25.08;55.47;100638.59;7411042;19;1624;-62
2022/07/24 00:26:24;;;;;;;;;;;;;;;25.08;55.47;100633.19;7409870;19;1207;-61
2022/07/24 00:28:52;;;;;;;;;;;;;;;25.09;55.79;100638.44;7409155;19;1862;-61
2022/07/24 00:31:21;;;;;;;;;;;;;;;25.11;55.51;100627.41;7409841;19;1638;-61
2022/07/24 00:33:49;;;;;;;;;;;;;;;25.10;55.45;100626.56;7409887;19;1588;-62
2022/07/24 00:36:18;;;;;;;;;;;;;;;25.09;55.65;100632.16;7409634;19;1283;-57
2022/07/24 00:38:47;;;;;;;;;;;;;;;25.14;55.56;100624.34;7410991;19;1899;-61
2022/07/24 00:41:18;;;;;;;;;;;;;;;25.09;55.71;100613.22;7407367;19;1698;-57
2022/07/24 00:44:01;;;;;;;;;;;;;;;25.11;55.52;100611.16;7409489;19;1734;-61
2022/07/24 00:46:30;;;;;;;;;;;;;;;25.10;55.50;100620.31;7410127;19;1532;-57
2022/07/24 00:48:58;;;;;;;;;;;;;;;25.12;55.69;100623.69;7409093;19;1851;-57
2022/07/24 00:51:27;;;;;;;;;;;;;;;25.09;55.45;100596.97;7408736;19;1536;-57
2022/07/24 00:53:55;;;;;;;;;;;;;;;25.10;55.66;100599.50;7410043;19;1557;-61
2022/07/24 00:56:26;;;;;;;;;;;;;;;25.14;55.78;100610.81;7408700;19;1549;-61
2022/07/24 00:58:55;;;;;;;;;;;;;;;25.07;55.51;100593.63;7410216;19;1631;-57
2022/07/24 01:01:23;;;;;;;;;;;;;;;25.09;55.52;100591.56;7407209;19;1785;-61
2022/07/24 01:03:52;;;;;;;;;;;;;;;25.06;55.56;100589.25;7408780;19;1263;-57
2022/07/24 01:06:21;;;;;;;;;;;;;;;25.10;55.40;100587.84;7410094;19;1627;-62
2022/07/24 01:08:49;;;;;;;;;;;;;;;25.07;55.51;100585.50;7408326;19;1853;-58
2022/07/24 01:11:17;;;;;;;;;;;;;;;25.06;55.61;100597.34;7409049;19;1761;-62
2022/07/24 01:13:49;;;;;;;;;;;;;;;25.08;55.91;100582.63;7408516;19;1866;-62
2022/07/24 01:16:18;;;;;;;;;;;;;;;25.06;55.41;100590.06;7408309;19;1958;-61
2022/07/24 01:18:46;;;;;;;;;;;;;;;25.08;55.53;100589.91;7408777;19;1559;-57
2022/07/24 01:21:17;;;;;;;;;;;;;;;25.08;55.83;100577.22;7409186;19;1592;-61
2022/07/24 01:23:45;;;;;;;;;;;;;;;25.07;55.73;100582.78;7409006;19;1518;-57
2022/07/24 01:26:14;;;;;;;;;;;;;;;25.07;55.63;100571.97;7408090;19;1548;-57
2022/07/24 01:28:42;;;;;;;;;;;;;;;25.05;55.62;100571.31;7407963;19;1869;-61
2022/07/24 01:31:11;;;;;;;;;;;;;;;25.06;55.61;100576.53;7408106;19;1651;-58
2022/07/24 01:33:39;;;;;;;;;;;;;;;25.06;55.91;100570.31;7406301;19;1579;-62
2022/07/24 01:36:08;;;;;;;;;;;;;;;25.05;55.54;100564.06;7408664;19;1540;-61
2022/07/24 01:38:39;;;;;;;;;;;;;;;25.06;55.81;100564.88;7408696;19;1624;-57
2022/07/24 01:41:07;;;;;;;;;;;;;;;25.04;55.97;100570.47;7407157;19;1691;-61
2022/07/24 01:43:36;;;;;;;;;;;;;;;25.05;55.48;100563.19;7408018;19;1501;-62
2022/07/24 01:46:04;;;;;;;;;;;;;;;25.05;55.68;100571.31;7407727;19;1533;-61
2022/07/24 01:48:33;;;;;;;;;;;;;;;25.02;55.70;100565.25;7407565;19;1861;-57
2022/07/24 01:51:01;;;;;;;;;;;;;;;24.90;55.88;100549.63;7407988;19;1627;-57
2022/07/24 01:53:29;;;;;;;;;;;;;;;25.04;55.94;100561.53;7409280;19;1612;-57
2022/07/24 01:56:00;;;;;;;;;;;;;;;25.09;55.54;100550.97;7408466;19;1437;-59
2022/07/24 01:58:29;;;;;;;;;;;;;;;25.06;55.90;100541.38;7404693;19;1636;-57
2022/07/24 02:00:57;;;;;;;;;;;;;;;25.05;55.96;100546.97;7399004;19;1355;-61
2022/07/24 02:03:25;;;;;;;;;;;;;;;25.03;55.59;100555.28;7405869;19;1521;-62
2022/07/24 02:05:57;;;;;;;;;;;;;;;25.00;55.83;100561.88;7404401;19;1667;-57
2022/07/24 02:08:26;;;;;;;;;;;;;;;25.10;56.03;100582.44;7407881;19;1882;-61
2022/07/24 02:10:55;;;;;;;;;;;;;;;25.02;55.90;100561.69;7405237;19;1643;-61
2022/07/24 02:13:27;;;;;;;;;;;;;;;25.10;55.75;100577.88;7406089;19;1549;-61
2022/07/24 02:15:56;;;;;;;;;;;;;;;25.04;55.84;100577.75;7405945;19;1588;-61
2022/07/24 02:18:24;;;;;;;;;;;;;;;25.04;55.70;100572.34;7407047;19;1545;-62
2022/07/24 02:20:52;;;;;;;;;;;;;;;25.07;55.79;100574.66;7407827;19;977;-61
2022/07/24 02:23:21;;;;;;;;;;;;;;;25.00;56.03;100561.88;7406989;19;1505;-57
2022/07/24 02:25:50;;;;;;;;;;;;;;;25.05;56.10;100565.91;7406962;19;1533;-58
2022/07/24 02:28:19;;;;;;;;;;;;;;;25.03;55.79;100560.69;7405126;19;1719;-57
2022/07/24 02:30:51;;;;;;;;;;;;;;;25.06;55.66;100564.88;7404668;19;1833;-62
2022/07/24 02:33:19;;;;;;;;;;;;;;;24.98;56.00;100552.25;7405731;19;1568;-61
2022/07/24 02:35:47;;;;;;;;;;;;;;;25.02;55.63;100554.41;7407707;19;1002;-61
2022/07/24 02:38:16;;;;;;;;;;;;;;;25.04;55.80;100573.19;7405707;19;1485;-61
2022/07/24 02:40:44;;;;;;;;;;;;;;;25.03;56.01;100555.28;7405627;19;1684;-57
2022/07/24 02:43:12;;;;;;;;;;;;;;;25.00;55.81;100544.81;7404313;19;1545;-61
2022/07/24 02:45:41;;;;;;;;;;;;;;;25.05;55.98;100561.34;7405635;19;1528;-58
2022/07/24 02:48:12;;;;;;;;;;;;;;;25.00;55.80;100555.63;7406677;19;1619;-57
2022/07/24 02:50:41;;;;;;;;;;;;;;;25.00;55.94;100556.47;7403645;19;1935;-61
2022/07/24 02:53:09;;;;;;;;;;;;;;;25.01;55.87;100549.22;7406169;19;1267;-57
2022/07/24 02:55:38;;;;;;;;;;;;;;;25.01;56.00;100560.03;7406168;19;1355;-57
2022/07/24 02:58:06;;;;;;;;;;;;;;;25.04;55.59;100578.59;7404007;19;1675;-61
2022/07/24 03:00:34;;;;;;;;;;;;;;;25.00;55.98;100544.81;7405844;19;1624;-61
2022/07/24 03:03:02;;;;;;;;;;;;;;;24.99;55.95;100552.09;7405896;19;1749;-62
2022/07/24 03:05:33;;;;;;;;;;;;;;;24.98;55.94;100553.09;7406207;19;1603;-62
2022/07/24 03:08:02;;;;;;;;;;;;;;;24.99;55.98;100552.09;7404270;19;1406;-61
2022/07/24 03:10:30;;;;;;;;;;;;;;;25.00;55.93;100556.47;7404149;19;1857;-61
2022/07/24 03:12:58;;;;;;;;;;;;;;;24.97;55.83;100556.00;7405327;19;1536;-61
2022/07/24 03:15:27;;;;;;;;;;;;;;;25.05;55.80;100557.78;7405234;19;1548;-57
2022/07/24 03:17:56;;;;;;;;;;;;;;;24.97;55.94;100547.88;7404363;19;1493;-61
2022/07/24 03:20:25;;;;;;;;;;;;;;;25.05;56.03;100565.91;7404016;19;1354;-57
2022/07/24 03:22:56;;;;;;;;;;;;;;;24.98;56.03;100563.09;7405071;19;1208;-61
2022/07/24 03:25:25;;;;;;;;;;;;;;;24.96;56.15;100565.97;7405230;19;1553;-61
2022/07/24 03:27:53;;;;;;;;;;;;;;;24.96;55.89;100559.72;7405549;19;1640;-58
2022/07/24 03:30:22;;;;;;;;;;;;;;;25.00;55.91;100561.88;7402895;19;1877;-57
2022/07/24 03:32:50;;;;;;;;;;;;;;;25.01;56.12;100563.56;7404457;19;1660;-61
2022/07/24 03:35:18;;;;;;;;;;;;;;;25.01;55.67;100563.56;7405395;19;1611;-61
2022/07/24 03:37:47;;;;;;;;;;;;;;;25.03;56.01;100563.41;7404414;19;1549;-57
2022/07/24 03:40:18;;;;;;;;;;;;;;;25.08;55.87;100579.91;7404640;19;1565;-57
2022/07/24 03:42:46;;;;;;;;;;;;;;;24.98;56.09;100563.91;7404658;19;1618;-61
2022/07/24 03:45:14;;;;;;;;;;;;;;;24.98;55.96;100552.25;7403753;19;1289;-57
2022/07/24 03:47:43;;;;;;;;;;;;;;;25.00;56.19;100555.63;7404108;19;1620;-57
2022/07/24 03:50:11;;;;;;;;;;;;;;;25.02;55.84;100561.69;7400781;19;1853;-57
2022/07/24 03:52:40;;;;;;;;;;;;;;;25.02;55.72;100564.41;7404702;19;1359;-60
2022/07/24 03:55:08;;;;;;;;;;;;;;;25.05;55.91;100571.31;7406764;19;1580;-61
2022/07/24 03:57:39;;;;;;;;;;;;;;;25.01;55.84;100577.09;7409755;19;1414;-58
2022/07/24 04:00:09;;;;;;;;;;;;;;;25.07;55.87;100569.25;7410235;19;1282;-57
2022/07/24 04:02:37;;;;;;;;;;;;;;;25.05;55.95;100563.19;7408031;19;1550;-57
2022/07/24 04:05:08;;;;;;;;;;;;;;;25.07;55.66;100564.72;7410571;19;1527;-57
2022/07/24 04:07:36;;;;;;;;;;;;;;;25.07;55.89;100561.16;7409288;19;1335;-61
2022/07/24 04:10:05;;;;;;;;;;;;;;;25.06;56.07;100564.88;7410489;19;1853;-62
2022/07/24 04:12:33;;;;;;;;;;;;;;;25.07;55.61;100571.97;7410604;19;1373;-61
2022/07/24 04:15:05;;;;;;;;;;;;;;;25.09;55.74;100559.97;7409287;19;1306;-60
2022/07/24 04:17:33;;;;;;;;;;;;;;;25.08;55.85;100558.25;7409281;19;1423;-57
2022/07/24 04:20:01;;;;;;;;;;;;;;;25.11;55.73;100565.16;7410746;19;1585;-57
2022/07/24 04:22:30;;;;;;;;;;;;;;;25.09;56.01;100564.50;7411395;19;1530;-57
2022/07/24 04:24:58;;;;;;;;;;;;;;;25.08;55.74;100562.84;7409888;19;1514;-61
2022/07/24 04:27:27;;;;;;;;;;;;;;;25.10;55.65;100547.28;7407219;19;1408;-57
2022/07/24 04:29:55;;;;;;;;;;;;;;;25.12;55.69;100547.94;7408359;19;1862;-61
2022/07/24 04:32:26;;;;;;;;;;;;;;;25.16;55.69;100549.25;7408006;19;1265;-58
2022/07/24 04:34:54;;;;;;;;;;;;;;;25.13;55.79;100553.16;7409783;19;1747;-57
2022/07/24 04:37:23;;;;;;;;;;;;;;;25.12;55.86;100551.47;7409695;19;1654;-62
2022/07/24 04:39:51;;;;;;;;;;;;;;;25.14;55.76;100559.41;7408912;19;1216;-57
2022/07/24 04:42:19;;;;;;;;;;;;;;;25.18;55.63;100571.56;7409440;19;1311;-56
2022/07/24 04:44:48;;;;;;;;;;;;;;;25.16;55.75;100551.94;7409790;19;1290;-57
2022/07/24 04:47:16;;;;;;;;;;;;;;;25.15;55.71;100553.81;7409244;19;1381;-61
2022/07/24 04:49:47;;;;;;;;;;;;;;;25.22;55.70;100553.97;7409430;19;1868;-57
2022/07/24 04:52:15;;;;;;;;;;;;;;;25.26;55.64;100579.63;7408945;19;1773;-62
2022/07/24 04:54:44;;;;;;;;;;;;;;;25.23;55.70;100574.59;7409064;19;1342;-58
2022/07/24 04:57:12;;;;;;;;;;;;;;;25.24;55.47;100578.97;7406948;19;1527;-61
2022/07/24 04:59:41;;;;;;;;;;;;;;;25.26;55.33;100566.09;7407244;19;1352;-57
2022/07/24 05:02:09;;;;;;;;;;;;;;;25.27;55.48;100589.47;7405584;19;1569;-61
2022/07/24 05:04:38;;;;;;;;;;;;;;;25.32;55.40;100592.44;7408645;19;1546;-57
2022/07/24 05:07:09;;;;;;;;;;;;;;;25.30;55.53;100564.72;7406105;19;1212;-57
2022/07/24 05:09:37;;;;;;;;;;;;;;;25.33;55.55;100569.78;7409295;19;1851;-62
2022/07/24 05:12:06;;;;;;;;;;;;;;;25.36;55.28;100566.69;7409588;19;1603;-62
2022/07/24 05:14:34;;;;;;;;;;;;;;;25.33;55.51;100548.13;7409034;19;1716;-56
2022/07/24 05:17:03;;;;;;;;;;;;;;;25.35;55.10;100550.66;7408023;19;1537;-59
2022/07/24 05:19:31;;;;;;;;;;;;;;;25.34;55.27;100555.19;7407876;19;1710;-61
2022/07/24 05:21:59;;;;;;;;;;;;;;;25.38;55.14;100552.97;7407415;19;1199;-57
2022/07/24 05:24:30;;;;;;;;;;;;;;;25.35;55.20;100540.66;7406689;19;1202;-58
2022/07/24 05:26:58;;;;;;;;;;;;;;;25.37;55.19;100562.97;7406817;19;1448;-62
2022/07/24 05:29:27;;;;;;;;;;;;;;;25.36;55.23;100542.31;7406070;19;1423;-57
2022/07/24 05:31:55;;;;;;;;;;;;;;;25.40;55.28;100550.94;7404122;19;1852;-57
2022/07/24 05:34:23;;;;;;;;;;;;;;;25.39;55.34;100546.56;7407418;19;1377;-62
2022/07/24 05:36:52;;;;;;;;;;;;;;;25.37;55.56;100543.19;7404401;19;1542;-57
2022/07/24 05:39:20;;;;;;;;;;;;;;;25.38;55.14;100545.69;7406795;19;1066;-61
2022/07/24 05:41:51;;;;;;;;;;;;;;;25.35;55.57;100531.72;7407374;19;1533;-62
2022/07/24 05:44:20;;;;;;;;;;;;;;;25.37;55.43;100538.63;7407249;19;1518;-57
2022/07/24 05:46:48;;;;;;;;;;;;;;;25.36;55.50;100533.38;7404896;19;1544;-57
2022/07/24 05:49:17;;;;;;;;;;;;;;;25.31;55.33;100530.41;7406718;19;1235;-56
2022/07/24 05:51:45;;;;;;;;;;;;;;;25.35;55.72;100535.25;7403712;19;1863;-57
2022/07/24 05:54:13;;;;;;;;;;;;;;;25.35;55.50;100543.38;7406256;19;1295;-57
2022/07/24 05:56:42;;;;;;;;;;;;;;;25.34;55.42;100538.97;7405696;19;1508;-57
2022/07/24 05:59:13;;;;;;;;;;;;;;;25.34;55.36;100547.09;7405532;19;1576;-62
2022/07/24 06:01:41;;;;;;;;;;;;;;;25.36;55.28;100542.31;7404377;19;1279;-60
2022/07/24 06:04:09;;;;;;;;;;;;;;;25.42;55.68;100531.81;7407200;19;1525;-56
2022/07/24 06:06:38;;;;;;;;;;;;;;;25.42;55.58;100523.69;7406672;19;1239;-56
2022/07/24 06:09:06;;;;;;;;;;;;;;;25.42;55.77;100537.22;7407788;19;1062;-62
2022/07/24 06:11:35;;;;;;;;;;;;;;;25.38;55.81;100526.75;7403360;19;1860;-62
2022/07/24 06:14:04;;;;;;;;;;;;;;;25.42;55.52;100531.81;7405555;19;1497;-57
2022/07/24 06:16:35;;;;;;;;;;;;;;;25.46;55.35;100533.13;7405269;19;1628;-57
2022/07/24 06:19:03;;;;;;;;;;;;;;;25.44;55.67;100516.22;7406702;19;1380;-57
2022/07/24 06:21:32;;;;;;;;;;;;;;;25.41;55.75;100517.44;7405607;19;1497;-57
2022/07/24 06:24:00;;;;;;;;;;;;;;;25.48;55.57;100522.94;7406713;19;1525;-57
2022/07/24 06:26:28;;;;;;;;;;;;;;;25.48;55.72;100515.66;7405367;19;1738;-62
2022/07/24 06:28:56;;;;;;;;;;;;;;;25.46;55.40;100504.16;7406543;19;1390;-57
2022/07/24 06:31:25;;;;;;;;;;;;;;;25.50;55.60;100512.78;7402645;19;1859;-62
2022/07/24 06:33:56;;;;;;;;;;;;;;;25.49;55.65;100517.34;7406485;19;1290;-63
2022/07/24 06:36:24;;;;;;;;;;;;;;;25.45;55.69;100505.22;7405162;19;1787;-57
2022/07/24 06:38:53;;;;;;;;;;;;;;;25.46;55.41;100489.81;7406799;19;1567;-62
2022/07/24 06:41:21;;;;;;;;;;;;;;;25.47;55.69;100508.56;7403756;19;1397;-57
2022/07/24 06:43:49;;;;;;;;;;;;;;;25.47;55.34;100478.78;7407129;19;1533;-62
2022/07/24 06:46:18;;;;;;;;;;;;;;;25.47;55.72;100499.63;7407081;19;1557;-57
2022/07/24 06:48:46;;;;;;;;;;;;;;;25.54;55.63;100497.84;7404272;19;1171;-57
2022/07/24 06:51:17;;;;;;;;;;;;;;;25.47;55.43;100480.66;7405275;19;1849;-57
2022/07/24 06:53:46;;;;;;;;;;;;;;;25.52;55.64;100483.66;7404991;19;1773;-57
2022/07/24 06:56:15;;;;;;;;;;;;;;;25.46;55.85;100474.38;7404614;19;1428;-58
2022/07/24 06:58:43;;;;;;;;;;;;;;;25.52;55.39;100467.41;7405554;19;1216;-61
2022/07/24 07:01:11;;;;;;;;;;;;;;;25.52;55.44;100475.53;7404162;19;1529;-62
2022/07/24 07:03:40;;;;;;;;;;;;;;;25.54;55.61;100487.84;7405345;19;1551;-57
2022/07/24 07:06:08;;;;;;;;;;;;;;;25.53;56.02;100472.63;7406142;19;1497;-60
2022/07/24 07:08:39;;;;;;;;;;;;;;;25.55;56.20;100494.13;7404761;19;1627;-61
2022/07/24 07:11:08;;;;;;;;;;;;;;;25.55;56.32;100477.88;7401638;19;1857;-58
2022/07/24 07:13:36;;;;;;;;;;;;;;;25.47;57.15;100481.50;7405933;19;1286;-57
2022/07/24 07:16:05;;;;;;;;;;;;;;;24.83;57.85;100462.09;7404643;19;1774;-64
2022/07/24 07:18:35;;;;;;;;;;;;;;;23.88;58.37;100463.16;7405540;19;1619;-63
2022/07/24 07:21:04;;;;;;;;;;;;;;;23.38;58.36;100467.84;7405265;19;1592;-62
2022/07/24 07:23:32;;;;;;;;;;;;;;;23.05;57.29;100467.03;7405686;19;1608;-63
2022/07/24 07:26:03;;;;;;;;;;;;;;;22.79;57.10;100468.00;7405804;19;1442;-63
2022/07/24 07:28:32;;;;;;;;;;;;;;;23.50;55.02;100461.06;7404785;19;1676;-56
2022/07/24 07:31:00;;;;;;;;;;;;;;;23.71;54.37;100463.19;7397920;19;1863;-63
2022/07/24 07:33:29;;;;;;;;;;;;;;;23.63;55.76;100465.91;7404759;19;1627;-63
2022/07/24 07:35:57;;;;;;;;;;;;;;;23.40;57.44;100463.94;7404650;19;1592;-55
2022/07/24 07:38:25;;;;;;;;;;;;;;;23.45;57.50;100454.50;7404026;19;1349;-55
2022/07/24 07:40:54;;;;;;;;;;;;;;;23.16;57.23;100455.91;7403360;19;1426;-55
2022/07/24 07:43:25;;;;;;;;;;;;;;;23.30;56.24;100455.22;7404328;19;1696;-55
2022/07/24 07:45:53;;;;;;;;;;;;;;;23.31;54.79;100446.09;7401920;19;1532;-60
2022/07/24 07:48:21;;;;;;;;;;;;;;;23.29;55.14;100431.91;7404784;19;1540;-55
2022/07/24 07:50:50;;;;;;;;;;;;;;;23.20;56.32;100459.94;7403436;19;1855;-60
2022/07/24 07:53:18;;;;;;;;;;;;;;;23.46;56.86;100453.47;7403340;19;1421;-60
2022/07/24 07:55:51;;;;;;;;;;;;;;;23.38;58.08;100457.06;7404038;19;1260;-54
2022/07/24 07:58:19;;;;;;;;;;;;;;;23.48;58.09;100448.75;7401633;19;1426;-55
2022/07/24 08:00:50;;;;;;;;;;;;;;;23.26;58.31;100458.41;7402806;19;1517;-60
2022/07/24 08:03:18;;;;;;;;;;;;;;;23.78;57.05;100457.97;7403821;19;1497;-57
2022/07/24 08:05:47;;;;;;;;;;;;;;;24.38;55.39;100440.28;7403534;19;1105;-58
2022/07/24 08:08:15;;;;;;;;;;;;;;;24.69;55.10;100442.97;7403363;19;1314;-59
2022/07/24 08:10:43;;;;;;;;;;;;;;;24.78;54.71;100427.50;7375441;19;1870;-58
2022/07/24 08:13:12;;;;;;;;;;;;;;;24.76;54.66;100435.78;7296842;19;1952;-57
2022/07/24 08:15:40;;;;;;;;;;;;;;;24.86;54.83;100426.59;7401923;19;1732;-61
2022/07/24 08:18:11;;;;;;;;;;;;;;;24.91;54.63;100433.13;7402495;19;1612;-61
2022/07/24 08:20:39;;;;;;;;;;;;;;;24.96;54.51;100429.88;7403126;19;1620;-61
2022/07/24 08:23:08;;;;;;;;;;;;;;;24.97;54.42;100432.41;7402971;19;1544;-61
2022/07/24 08:25:36;;;;;;;;;;;;;;;24.99;54.64;100435.75;7402791;19;1607;-55
2022/07/24 08:28:05;;;;;;;;;;;;;;;25.01;54.60;100433.72;7403185;19;1500;-61
2022/07/24 08:30:33;;;;;;;;;;;;;;;25.05;54.72;100423.38;7402064;19;1867;-61
2022/07/24 08:33:01;;;;;;;;;;;;;;;25.09;54.62;100423.81;7402990;19;1503;-61
2022/07/24 08:35:32;;;;;;;;;;;;;;;25.06;54.37;100427.75;7403184;19;1552;-55
2022/07/24 08:38:01;;;;;;;;;;;;;;;25.11;54.46;100427.19;7401286;19;1729;-55
2022/07/24 08:40:34;;;;;;;;;;;;;;;25.12;54.48;100429.72;7401323;19;1363;-55
2022/07/24 08:43:03;;;;;;;;;;;;;;;25.11;54.42;100432.59;7406842;19;1375;-55
2022/07/24 08:45:31;;;;;;;;;;;;;;;25.22;54.35;100447.59;7409227;19;993;-55
2022/07/24 08:48:01;;;;;;;;;;;;;;;25.19;54.62;100437.94;7409748;19;1571;-61
2022/07/24 08:50:29;;;;;;;;;;;;;;;25.18;54.56;100433.53;7409288;19;1453;-55
2022/07/24 08:53:01;;;;;;;;;;;;;;;25.19;54.68;100433.38;7406989;19;1851;-55
2022/07/24 08:55:29;;;;;;;;;;;;;;;25.24;54.57;100448.25;7409819;19;1616;-61
2022/07/24 08:57:58;;;;;;;;;;;;;;;25.22;54.42;100444.88;7408223;19;1612;-55
2022/07/24 09:00:26;;;;;;;;;;;;;;;25.22;54.68;100440.31;7409994;19;1362;-55
2022/07/24 09:02:55;;;;;;;;;;;;;;;25.24;54.71;100435.53;7408983;19;1790;-55
2022/07/24 09:05:23;;;;;;;;;;;;;;;25.25;54.79;100445.34;7407265;19;1344;-61
2022/07/24 09:07:52;;;;;;;;;;;;;;;25.26;54.68;100438.06;7408228;19;1533;-55
2022/07/24 09:10:23;;;;;;;;;;;;;;;25.30;54.60;100453.75;7405709;19;1379;-55
2022/07/24 09:12:52;;;;;;;;;;;;;;;25.28;54.93;100444.97;7407422;19;1829;-55
2022/07/24 09:15:22;;;;;;;;;;;;;;;25.27;54.82;100439.75;7407957;19;1771;-55
2022/07/24 09:17:52;;;;;;;;;;;;;;;25.27;55.01;100448.72;7409003;19;1278;-55
2022/07/24 09:20:21;;;;;;;;;;;;;;;25.28;54.90;100444.13;7407950;19;1588;-62
2022/07/24 09:22:49;;;;;;;;;;;;;;;25.28;54.76;100439.56;7407910;19;1426;-55
2022/07/24 09:25:18;;;;;;;;;;;;;;;25.34;54.83;100444.22;7407338;19;947;-55
2022/07/24 09:27:53;;;;;;;;;;;;;;;25.34;54.66;100444.22;7409577;19;1545;-62
2022/07/24 09:30:32;;;;;;;;;;;;;;;25.33;54.98;100437.16;7408659;19;1687;-56
2022/07/24 09:33:01;;;;;;;;;;;;;;;25.33;54.72;100431.75;7406321;19;1853;-55
2022/07/24 09:35:34;;;;;;;;;;;;;;;25.34;54.80;100417.16;7408782;19;1556;-62
2022/07/24 09:38:03;;;;;;;;;;;;;;;25.38;54.77;100432.00;7407907;19;1334;-55
2022/07/24 09:40:33;;;;;;;;;;;;;;;25.36;54.84;100425.94;7409144;19;1581;-55
2022/07/24 09:43:16;;;;;;;;;;;;;;;25.38;54.81;100429.28;7407797;19;1552;-55
2022/07/24 09:45:57;;;;;;;;;;;;;;;25.38;54.73;100418.47;7407700;19;1678;-62
2022/07/24 09:48:26;;;;;;;;;;;;;;;25.42;54.80;100426.22;7407462;19;1561;-62
2022/07/24 09:50:56;;;;;;;;;;;;;;;25.43;54.85;100417.06;7408565;19;1517;-55
2022/07/24 09:53:25;;;;;;;;;;;;;;;25.42;55.09;100415.41;7406883;19;1718;-56
2022/07/24 09:56:06;;;;;;;;;;;;;;;25.43;54.65;100426.06;7407976;19;1501;-55
2022/07/24 09:58:36;;;;;;;;;;;;;;;25.45;55.09;100417.75;7405468;19;1710;-61
2022/07/24 10:01:07;;;;;;;;;;;;;;;25.44;55.01;100416.06;7405922;19;1619;-62
2022/07/24 10:03:38;;;;;;;;;;;;;;;25.44;54.96;100418.75;7407224;19;1795;-55
2022/07/24 10:06:07;;;;;;;;;;;;;;;25.41;54.87;100401.03;7408049;19;1201;-62
2022/07/24 10:08:39;;;;;;;;;;;;;;;25.40;54.86;100400.16;7408163;19;1608;-55
2022/07/24 10:11:07;;;;;;;;;;;;;;;25.43;54.86;100409.81;7405471;19;1865;-62
2022/07/24 10:13:36;;;;;;;;;;;;;;;25.45;54.82;100415.88;7405882;19;1522;-62
2022/07/24 10:16:18;;;;;;;;;;;;;;;25.45;55.08;100405.06;7406223;19;1506;-60
2022/07/24 10:18:49;;;;;;;;;;;;;;;25.46;55.13;100414.84;7405501;19;1648;-55
2022/07/24 10:21:19;;;;;;;;;;;;;;;25.44;55.02;100394.41;7406785;19;1620;-55
2022/07/24 10:24:01;;;;;;;;;;;;;;;25.45;54.96;100398.81;7406991;19;1554;-62
2022/07/24 10:26:34;;;;;;;;;;;;;;;25.44;54.95;100388.97;7406340;19;1522;-55
2022/07/24 10:29:07;;;;;;;;;;;;;;;25.40;54.91;100383.94;7406582;19;1566;-62
2022/07/24 10:31:39;;;;;;;;;;;;;;;25.43;55.30;100387.28;7404006;19;1850;-55
2022/07/24 10:34:12;;;;;;;;;;;;;;;25.48;55.04;100390.28;7406708;19;1586;-61
2022/07/24 10:36:44;;;;;;;;;;;;;;;25.46;55.29;100381.50;7406804;19;1557;-55
2022/07/24 10:39:15;;;;;;;;;;;;;;;25.49;54.95;100395.53;7406157;19;1632;-55
2022/07/24 10:41:44;;;;;;;;;;;;;;;25.50;55.24;100385.53;7405642;19;1291;-55
2022/07/24 10:44:17;;;;;;;;;;;;;;;25.49;55.12;100381.97;7406368;19;1624;-62
2022/07/24 10:47:00;;;;;;;;;;;;;;;25.48;55.25;100379.47;7404836;19;1557;-56
2022/07/24 10:49:44;;;;;;;;;;;;;;;25.47;55.20;100370.50;7404953;19;1637;-55
2022/07/24 10:52:24;;;;;;;;;;;;;;;25.49;55.14;100364.91;7404342;19;1879;-55
2022/07/24 10:55:07;;;;;;;;;;;;;;;25.46;55.28;100374.22;7405746;19;1541;-62
2022/07/24 10:57:57;;;;;;;;;;;;;;;25.46;55.16;100359.84;7403716;19;1663;-62
2022/07/24 11:00:27;;;;;;;;;;;;;;;25.47;55.17;100377.78;7405455;19;1891;-55
2022/07/24 11:03:02;;;;;;;;;;;;;;;25.50;55.25;100361.16;7405243;19;1758;-56
2022/07/24 11:05:32;;;;;;;;;;;;;;;25.48;55.52;100357.81;7404153;19;1534;-55
2022/07/24 11:08:33;;;;;;;;;;;;;;;25.47;55.12;100369.69;7404614;19;1441;-55
2022/07/24 11:11:12;;;;;;;;;;;;;;;25.49;55.39;100356.78;7405659;19;1732;-55
2022/07/24 11:13:45;;;;;;;;;;;;;;;25.46;55.24;100370.69;7403151;19;1847;-59
2022/07/24 11:16:23;;;;;;;;;;;;;;;25.47;55.52;100345.31;7404856;19;1526;-59
2022/07/24 11:19:22;;;;;;;;;;;;;;;25.50;55.56;100355.75;7404232;19;1608;-63
2022/07/24 11:21:50;;;;;;;;;;;;;;;25.48;55.45;100360.50;7400500;19;1480;-55
2022/07/24 11:24:23;;;;;;;;;;;;;;;25.52;55.25;100378.06;7403675;19;1617;-62
2022/07/24 11:26:52;;;;;;;;;;;;;;;25.46;55.36;100344.44;7403641;19;1541;-62
2022/07/24 11:29:23;;;;;;;;;;;;;;;25.47;55.56;100337.19;7404736;19;1549;-62
2022/07/24 11:31:52;;;;;;;;;;;;;;;25.47;55.79;100348.84;7403865;19;1865;-56
2022/07/24 11:34:20;;;;;;;;;;;;;;;25.51;55.57;100346.59;7404283;19;1625;-62
2022/07/24 11:36:50;;;;;;;;;;;;;;;25.48;55.32;100339.69;7405742;19;1581;-62
2022/07/24 11:39:22;;;;;;;;;;;;;;;25.46;55.41;100333.63;7404522;19;1759;-55
2022/07/24 11:41:52;;;;;;;;;;;;;;;25.52;55.68;100323.91;7404246;19;1721;-55
2022/07/24 11:44:25;;;;;;;;;;;;;;;25.51;55.34;100335.78;7403886;19;1708;-62
2022/07/24 11:46:54;;;;;;;;;;;;;;;25.53;55.46;100317.47;7403354;19;1522;-62
2022/07/24 11:49:23;;;;;;;;;;;;;;;25.50;55.65;100326.78;7404818;19;1518;-62
2022/07/24 11:51:52;;;;;;;;;;;;;;;25.53;55.48;100309.34;7404293;19;1853;-62
2022/07/24 11:54:25;;;;;;;;;;;;;;;25.49;55.70;100310.75;7404999;19;1009;-62
2022/07/24 11:56:54;;;;;;;;;;;;;;;25.48;55.52;100315.31;7399758;19;1443;-55
2022/07/24 11:59:26;;;;;;;;;;;;;;;25.51;55.53;100314.13;7403056;19;1609;-62
2022/07/24 12:01:57;;;;;;;;;;;;;;;25.51;55.63;100309.53;7402423;19;1644;-63
2022/07/24 12:04:25;;;;;;;;;;;;;;;25.48;55.81;100317.19;7403407;19;1635;-56
2022/07/24 12:06:54;;;;;;;;;;;;;;;25.48;55.64;100314.47;7404348;19;1613;-55
2022/07/24 12:09:25;;;;;;;;;;;;;;;25.54;55.50;100329.97;7403327;19;1704;-55
2022/07/24 12:11:53;;;;;;;;;;;;;;;25.54;55.66;100308.31;7403095;19;1871;-55
2022/07/24 12:14:22;;;;;;;;;;;;;;;25.50;55.67;100307.84;7404121;19;1569;-62
2022/07/24 12:16:54;;;;;;;;;;;;;;;25.54;55.93;100297.47;7406522;19;1653;-62
2022/07/24 12:19:23;;;;;;;;;;;;;;;25.54;55.85;100298.31;7410416;19;1542;-56
2022/07/24 12:21:53;;;;;;;;;;;;;;;25.54;55.94;100298.31;7410234;19;1645;-55
2022/07/24 12:24:22;;;;;;;;;;;;;;;25.53;55.58;100299.34;7411096;19;1538;-62
2022/07/24 12:26:53;;;;;;;;;;;;;;;25.51;55.62;100301.41;7408921;19;1688;-62
2022/07/24 12:29:22;;;;;;;;;;;;;;;25.55;55.72;100288.34;7410949;19;1578;-62
2022/07/24 12:31:50;;;;;;;;;;;;;;;25.55;55.56;100282.94;7408880;19;1649;-62
2022/07/24 12:34:18;;;;;;;;;;;;;;;25.54;55.53;100292.06;7409559;19;1613;-62
2022/07/24 12:36:47;;;;;;;;;;;;;;;25.56;55.73;100276.47;7410488;19;1356;-61
2022/07/24 12:39:15;;;;;;;;;;;;;;;25.57;55.60;100264.63;7410988;19;1631;-62
2022/07/24 12:41:45;;;;;;;;;;;;;;;25.53;55.62;100260.63;7410242;19;1344;-55
2022/07/24 12:44:16;;;;;;;;;;;;;;;25.55;55.72;100280.22;7410544;19;1411;-55
2022/07/24 12:46:45;;;;;;;;;;;;;;;25.55;55.89;100263.97;7408104;19;1590;-62
2022/07/24 12:49:14;;;;;;;;;;;;;;;25.53;55.58;100263.34;7409530;19;1514;-55
2022/07/24 12:51:48;;;;;;;;;;;;;;;25.56;56.01;100274.59;7409051;19;1616;-55
2022/07/24 12:54:18;;;;;;;;;;;;;;;25.56;55.89;100255.63;7407312;19;1852;-61
2022/07/24 12:56:46;;;;;;;;;;;;;;;25.54;55.64;100259.56;7409048;19;1569;-56
2022/07/24 12:59:27;;;;;;;;;;;;;;;25.56;55.92;100242.09;7409828;19;1443;-55
2022/07/24 13:01:56;;;;;;;;;;;;;;;25.56;55.68;100252.94;7406090;19;1568;-55